createdAt,value
2024-05-09T00:01:54.602Z,5.93
2024-05-09T00:04:25.198Z,6.03
2024-05-09T00:06:56.253Z,5.53
2024-05-09T00:09:29.367Z,5.70
2024-05-09T00:12:00.481Z,5.07
2024-05-09T00:14:31.176Z,5.13
2024-05-09T00:17:02.259Z,5.50
2024-05-09T00:19:33.872Z,5.00
2024-05-09T00:22:04.997Z,4.77
2024-05-09T00:24:38.184Z,6.33
2024-05-09T00:27:11.242Z,5.63
2024-05-09T00:29:43.210Z,5.40
2024-05-09T00:32:14.194Z,5.70
2024-05-09T00:34:44.805Z,4.00
2024-05-09T00:37:16.399Z,4.73
2024-05-09T00:39:49.597Z,4.90
2024-05-09T00:42:20.460Z,5.33
2024-05-09T00:44:51.819Z,5.60
2024-05-09T00:47:24.111Z,5.07
2024-05-09T00:49:54.877Z,5.57
2024-05-09T00:52:25.886Z,5.00
2024-05-09T00:55:00.375Z,4.67
2024-05-09T00:57:31.457Z,4.97
2024-05-09T01:00:04.722Z,5.03
2024-05-09T01:02:37.125Z,5.33
2024-05-09T01:05:08.410Z,5.33
2024-05-09T01:07:39.531Z,5.23
2024-05-09T01:10:17.435Z,5.80
2024-05-09T01:12:54.761Z,5.47
2024-05-09T01:15:25.232Z,4.90
2024-05-09T01:17:57.105Z,5.20
2024-05-09T01:20:39.016Z,4.80
2024-05-09T01:23:16.841Z,4.90
2024-05-09T01:25:47.555Z,4.73
2024-05-09T01:28:18.786Z,4.80
2024-05-09T01:30:49.379Z,5.17
2024-05-09T01:33:20.634Z,4.63
2024-05-09T01:35:51.257Z,4.77
2024-05-09T01:38:24.849Z,5.43
2024-05-09T01:40:55.480Z,4.10
2024-05-09T01:43:26.398Z,5.37
2024-05-09T01:45:56.893Z,4.93
2024-05-09T01:48:27.829Z,5.53
2024-05-09T01:50:58.484Z,5.10
2024-05-09T01:53:32.240Z,5.00
2024-05-09T01:56:02.928Z,3.97
2024-05-09T01:58:34.357Z,4.70
2024-05-09T02:01:05.261Z,4.50
2024-05-09T02:03:36.355Z,4.53
2024-05-09T02:06:07.391Z,5.10
2024-05-09T02:08:41.016Z,5.00
2024-05-09T02:11:11.722Z,4.47
2024-05-09T02:13:44.422Z,5.00
2024-05-09T02:16:15.160Z,5.40
2024-05-09T02:18:46.236Z,4.97
2024-05-09T02:21:16.847Z,4.97
2024-05-09T02:23:50.402Z,4.33
2024-05-09T02:26:21.234Z,4.80
2024-05-09T02:28:52.208Z,4.70
2024-05-09T02:31:22.769Z,4.50
2024-05-09T02:33:53.966Z,5.03
2024-05-09T02:36:25.192Z,4.83
2024-05-09T02:38:56.134Z,4.43
2024-05-09T02:41:27.102Z,5.37
2024-05-09T02:43:55.490Z,5.57
2024-05-09T02:46:25.961Z,4.87
2024-05-09T02:48:54.336Z,5.20
2024-05-09T02:51:25.002Z,5.83
2024-05-09T02:53:55.891Z,5.67
2024-05-09T02:56:26.558Z,5.23
2024-05-09T02:58:56.770Z,4.77
2024-05-09T03:01:27.550Z,5.90
2024-05-09T03:03:56.033Z,4.87
2024-05-09T03:06:26.681Z,6.13
2024-05-09T03:08:57.648Z,5.40
2024-05-09T03:11:28.792Z,5.50
2024-05-09T03:13:57.271Z,5.40
2024-05-09T03:16:27.801Z,5.50
2024-05-09T03:18:56.273Z,4.87
2024-05-09T03:21:26.779Z,5.27
2024-05-09T03:23:57.669Z,5.20
2024-05-09T03:26:28.272Z,4.93
2024-05-09T03:28:56.664Z,5.30
2024-05-09T03:31:27.191Z,11.90
2024-05-09T03:33:55.552Z,43.87
2024-05-09T03:36:26.142Z,25.27
2024-05-09T03:38:59.721Z,11.70
2024-05-09T03:41:31.878Z,8.30
2024-05-09T03:44:02.868Z,5.80
2024-05-09T03:46:30.804Z,6.03
2024-05-09T03:49:02.387Z,6.00
2024-05-09T03:51:30.372Z,6.50
2024-05-09T03:54:03.893Z,6.37
2024-05-09T03:56:31.966Z,27.57
2024-05-09T03:59:03.047Z,34.03
2024-05-09T04:01:31.120Z,16.43
2024-05-09T04:04:02.284Z,10.83
2024-05-09T04:06:32.836Z,7.70
2024-05-09T04:09:05.115Z,7.60
2024-05-09T04:11:35.895Z,6.13
2024-05-09T04:14:04.304Z,30.67
2024-05-09T04:16:34.783Z,20.67
2024-05-09T04:19:03.112Z,13.83
2024-05-09T04:21:33.628Z,8.00
2024-05-09T04:24:04.835Z,6.57
2024-05-09T04:26:35.507Z,6.57
2024-05-09T04:29:05.581Z,5.90
2024-05-09T04:31:39.700Z,5.40
2024-05-09T04:34:08.087Z,5.67
2024-05-09T04:36:41.638Z,5.50
2024-05-09T04:39:13.440Z,6.30
2024-05-09T04:41:43.964Z,5.13
2024-05-09T04:44:12.487Z,5.37
2024-05-09T04:46:43.023Z,5.20
2024-05-09T04:49:11.517Z,5.03
2024-05-09T04:51:42.074Z,5.50
2024-05-09T04:54:25.795Z,4.67
2024-05-09T04:57:00.969Z,5.40
2024-05-09T04:59:29.498Z,4.67
2024-05-09T05:02:00.180Z,4.87
2024-05-09T05:04:28.699Z,4.90
2024-05-09T05:07:02.541Z,4.57
2024-05-09T05:09:34.065Z,4.37
2024-05-09T05:12:24.712Z,4.67
2024-05-09T05:14:53.202Z,5.40
2024-05-09T05:17:23.863Z,5.00
2024-05-09T05:19:52.367Z,6.90
2024-05-09T05:22:23.055Z,5.17
2024-05-09T05:24:54.047Z,5.30
2024-05-09T05:27:24.606Z,5.23
2024-05-09T05:29:53.007Z,5.53
2024-05-09T05:32:23.707Z,5.87
2024-05-09T05:34:52.255Z,4.90
2024-05-09T05:37:22.851Z,6.43
2024-05-09T05:39:53.808Z,7.17
2024-05-09T05:42:25.171Z,5.57
2024-05-09T05:44:53.931Z,5.90
2024-05-09T05:47:24.994Z,5.87
2024-05-09T05:49:53.488Z,6.13
2024-05-09T05:52:25.446Z,6.47
2024-05-09T05:54:56.428Z,6.60
2024-05-09T05:57:27.018Z,5.50
2024-05-09T05:59:55.317Z,6.50
2024-05-09T06:02:25.955Z,4.90
2024-05-09T06:04:54.497Z,5.33
2024-05-09T06:07:24.999Z,7.00
2024-05-09T06:09:56.191Z,6.07
2024-05-09T06:12:26.903Z,6.93
2024-05-09T06:14:55.280Z,6.90
2024-05-09T06:17:26.069Z,6.23
2024-05-09T06:19:54.558Z,6.57
2024-05-09T06:22:25.170Z,7.47
2024-05-09T06:24:57.090Z,6.03
2024-05-09T06:27:27.835Z,6.27
2024-05-09T06:29:56.090Z,6.83
2024-05-09T06:32:26.726Z,6.50
2024-05-09T06:34:55.950Z,4.30
2024-05-09T06:37:26.519Z,6.07
2024-05-09T06:39:57.514Z,4.63
2024-05-09T06:42:28.062Z,4.77
2024-05-09T06:44:56.562Z,4.57
2024-05-09T06:47:27.240Z,4.83
2024-05-09T06:49:55.716Z,4.90
2024-05-09T06:52:26.282Z,4.77
2024-05-09T06:54:57.210Z,5.47
2024-05-09T06:57:29.740Z,5.00
2024-05-09T07:00:00.685Z,5.00
2024-05-09T07:02:32.089Z,4.90
2024-05-09T07:05:00.687Z,5.13
2024-05-09T07:07:31.382Z,4.67
2024-05-09T07:10:02.401Z,5.13
2024-05-09T07:12:33.181Z,5.47
2024-05-09T07:15:01.586Z,6.27
2024-05-09T07:17:32.308Z,4.37
2024-05-09T07:20:00.833Z,4.23
2024-05-09T07:22:31.406Z,4.00
2024-05-09T07:25:02.331Z,4.57
2024-05-09T07:27:32.944Z,4.70
2024-05-09T07:30:01.499Z,4.03
2024-05-09T07:32:32.513Z,5.10
2024-05-09T07:35:00.855Z,5.27
2024-05-09T07:37:31.422Z,4.63
2024-05-09T07:40:05.838Z,6.00
2024-05-09T07:42:37.878Z,4.37
2024-05-09T07:45:24.228Z,4.60
2024-05-09T07:49:44.267Z,4.60
2024-05-09T07:53:38.356Z,4.63
2024-05-09T07:56:11.401Z,4.90
2024-05-09T07:58:42.666Z,4.30
2024-05-09T08:01:11.247Z,4.17
2024-05-09T08:03:42.090Z,4.90
2024-05-09T08:06:10.752Z,3.80
2024-05-09T08:08:41.282Z,4.70
2024-05-09T08:11:12.300Z,5.83
2024-05-09T08:13:42.921Z,4.50
2024-05-09T08:16:11.308Z,7.10
2024-05-09T08:18:42.372Z,6.00
2024-05-09T08:21:10.888Z,4.40
2024-05-09T08:23:41.410Z,4.60
2024-05-09T08:26:12.529Z,5.93
2024-05-09T08:28:43.079Z,5.40
2024-05-09T08:31:11.700Z,4.93
2024-05-09T08:33:47.656Z,16.27
2024-05-09T08:36:16.951Z,7.63
2024-05-09T08:38:47.516Z,5.30
2024-05-09T08:41:18.560Z,5.32
2024-05-09T08:43:49.960Z,5.45
2024-05-09T08:46:19.095Z,4.93
2024-05-09T08:48:52.720Z,4.23
2024-05-09T08:51:21.257Z,4.90
2024-05-09T08:53:51.806Z,4.20
2024-05-09T08:56:28.086Z,6.10
2024-05-09T08:59:03.728Z,5.82
2024-05-09T09:01:34.324Z,5.45
2024-05-09T09:04:07.166Z,4.63
2024-05-09T09:06:36.580Z,4.38
2024-05-09T09:09:07.312Z,4.97
2024-05-09T09:11:38.269Z,4.53
2024-05-09T09:14:08.899Z,4.30
2024-05-09T09:16:37.683Z,3.58
2024-05-09T09:19:08.335Z,3.90
2024-05-09T09:21:36.743Z,4.72
2024-05-09T09:24:09.937Z,4.05
2024-05-09T09:26:41.762Z,4.75
2024-05-09T09:29:12.236Z,4.60
2024-05-09T09:31:42.180Z,4.65
2024-05-09T09:34:13.074Z,5.03
2024-05-09T09:36:44.429Z,3.88
2024-05-09T09:39:20.058Z,4.30
2024-05-09T09:41:51.944Z,4.65
2024-05-09T09:44:25.079Z,4.55
2024-05-09T09:46:56.756Z,3.92
2024-05-09T09:49:27.905Z,3.58
2024-05-09T09:51:56.646Z,4.38
2024-05-09T09:54:27.833Z,4.53
2024-05-09T09:56:58.982Z,4.18
2024-05-09T09:59:31.035Z,4.35
2024-05-09T10:01:59.459Z,3.92
2024-05-09T10:04:30.381Z,4.85
2024-05-09T10:07:03.496Z,4.50
2024-05-09T10:09:35.808Z,3.80
2024-05-09T10:12:13.783Z,3.80
2024-05-09T10:14:49.324Z,3.22
2024-05-09T10:17:18.194Z,4.00
2024-05-09T10:19:48.950Z,4.38
2024-05-09T10:22:27.781Z,3.53
2024-05-09T10:25:06.496Z,3.83
2024-05-09T10:27:37.523Z,3.72
2024-05-09T10:30:14.658Z,2.90
2024-05-09T10:32:56.278Z,3.63
2024-05-09T10:35:26.712Z,4.47
2024-05-09T10:37:58.636Z,4.03
2024-05-09T10:40:31.349Z,3.05
2024-05-09T10:43:07.930Z,4.63
2024-05-09T10:45:36.207Z,3.63
2024-05-09T10:48:07.681Z,3.70
2024-05-09T10:50:36.136Z,3.28
2024-05-09T10:53:07.252Z,3.88
2024-05-09T10:55:35.134Z,3.97
2024-05-09T10:58:18.950Z,3.50
2024-05-09T11:00:46.977Z,3.22
2024-05-09T11:03:18.490Z,3.75
2024-05-09T11:05:47.527Z,3.35
2024-05-09T11:08:19.025Z,2.78
2024-05-09T11:10:47.730Z,2.78
2024-05-09T11:13:29.821Z,2.85
2024-05-09T11:15:57.959Z,3.08
2024-05-09T11:18:35.284Z,2.70
2024-05-09T11:21:13.382Z,3.00
2024-05-09T11:23:44.964Z,4.60
2024-05-09T11:26:15.286Z,2.60
2024-05-09T11:28:50.775Z,2.63
2024-05-09T11:31:19.174Z,3.33
2024-05-09T11:33:50.535Z,3.60
2024-05-09T11:36:18.545Z,2.60
2024-05-09T11:38:49.653Z,3.03
2024-05-09T11:41:18.587Z,2.95
2024-05-09T11:43:52.359Z,3.30
2024-05-09T11:46:20.386Z,3.47
2024-05-09T11:48:51.523Z,2.90
2024-05-09T11:51:19.523Z,2.80
2024-05-09T11:53:50.406Z,3.33
2024-05-09T11:56:18.402Z,4.18
2024-05-09T11:58:51.904Z,5.15
2024-05-09T12:01:20.120Z,4.15
2024-05-09T12:03:54.142Z,3.17
2024-05-09T12:06:22.285Z,2.70
2024-05-09T12:08:53.294Z,2.20
2024-05-09T12:11:22.394Z,3.42
2024-05-09T12:13:56.123Z,3.83
2024-05-09T12:16:24.573Z,4.50
2024-05-09T12:18:55.879Z,6.03
2024-05-09T12:21:23.902Z,4.97
2024-05-09T12:23:54.900Z,5.50
2024-05-09T12:26:22.963Z,4.75
2024-05-09T12:28:56.786Z,4.72
2024-05-09T12:31:24.880Z,3.92
2024-05-09T12:33:56.029Z,3.15
2024-05-09T12:36:24.052Z,3.47
2024-05-09T12:38:54.919Z,3.55
2024-05-09T12:41:22.903Z,3.85
2024-05-09T12:43:56.428Z,4.25
2024-05-09T12:46:24.871Z,4.05
2024-05-09T12:48:56.672Z,4.68
2024-05-09T12:51:25.102Z,3.38
2024-05-09T12:53:56.597Z,4.15
2024-05-09T12:56:25.182Z,3.28
2024-05-09T12:58:59.397Z,3.10
2024-05-09T13:01:27.911Z,3.03
2024-05-09T13:03:59.629Z,3.35
2024-05-09T13:06:28.468Z,3.45
2024-05-09T13:08:59.774Z,3.63
2024-05-09T13:11:28.178Z,4.90
2024-05-09T13:14:02.265Z,4.15
2024-05-09T13:16:30.634Z,3.33
2024-05-09T13:19:02.122Z,4.00
2024-05-09T13:21:30.504Z,3.25
2024-05-09T13:24:01.921Z,3.80
2024-05-09T13:26:30.453Z,5.05
2024-05-09T13:29:04.572Z,3.25
2024-05-09T13:31:33.048Z,3.03
2024-05-09T13:34:04.807Z,3.00
2024-05-09T13:36:33.256Z,3.20
2024-05-09T13:39:04.684Z,3.08
2024-05-09T13:41:33.012Z,3.40
2024-05-09T13:44:07.083Z,3.72
2024-05-09T13:46:35.507Z,3.75
2024-05-09T13:49:10.786Z,3.58
2024-05-09T13:51:40.539Z,3.28
2024-05-09T13:54:11.951Z,3.20
2024-05-09T13:56:40.232Z,3.00
2024-05-09T13:59:14.193Z,5.35
2024-05-09T14:01:42.602Z,3.28
2024-05-09T14:04:14.699Z,3.17
2024-05-09T14:06:43.378Z,4.35
2024-05-09T14:09:14.718Z,4.35
2024-05-09T14:11:43.323Z,9.23
2024-05-09T14:14:17.527Z,6.60
2024-05-09T14:16:46.098Z,6.00
2024-05-09T14:19:17.869Z,4.75
2024-05-09T14:21:46.379Z,3.47
2024-05-09T14:24:17.684Z,4.15
2024-05-09T14:26:45.958Z,4.03
2024-05-09T14:29:19.969Z,3.78
2024-05-09T14:31:48.203Z,3.30
2024-05-09T14:34:19.982Z,3.33
2024-05-09T14:36:48.749Z,3.95
2024-05-09T14:39:20.138Z,3.83
2024-05-09T14:41:48.415Z,3.78
2024-05-09T14:44:22.595Z,4.63
2024-05-09T14:46:51.025Z,4.47
2024-05-09T14:49:22.392Z,6.65
2024-05-09T14:51:51.707Z,12.98
2024-05-09T14:54:22.956Z,12.52
2024-05-09T14:56:52.406Z,5.28
2024-05-09T14:59:26.463Z,5.28
2024-05-09T15:01:54.768Z,5.10
2024-05-09T15:04:27.090Z,3.95
2024-05-09T15:06:56.725Z,4.38
2024-05-09T15:09:28.016Z,4.93
2024-05-09T15:11:56.552Z,3.38
2024-05-09T15:14:30.509Z,5.28
2024-05-09T15:16:58.990Z,132.03
2024-05-09T15:19:31.109Z,84.37
2024-05-09T15:21:59.876Z,75.30
2024-05-09T15:24:33.437Z,72.03
2024-05-09T15:27:02.045Z,70.73
2024-05-09T15:29:36.346Z,66.83
2024-05-09T15:32:05.104Z,68.80
2024-05-09T15:34:36.684Z,68.53
2024-05-09T15:37:05.483Z,67.83
2024-05-09T15:39:37.147Z,67.47
2024-05-09T15:42:05.918Z,67.10
2024-05-09T15:44:40.282Z,72.77
2024-05-09T15:47:08.742Z,3.65
2024-05-09T15:49:40.180Z,5.82
2024-05-09T15:52:08.795Z,10.27
2024-05-09T15:54:40.236Z,9.00
2024-05-09T15:57:08.986Z,5.97
2024-05-09T15:59:42.792Z,3.60
2024-05-09T16:02:11.741Z,3.95
2024-05-09T16:04:42.938Z,5.15
2024-05-09T16:07:11.353Z,4.03
2024-05-09T16:09:42.356Z,5.20
2024-05-09T16:12:10.303Z,4.80
2024-05-09T16:14:45.283Z,3.92
2024-05-09T16:17:13.978Z,4.68
2024-05-09T16:19:44.943Z,4.32
2024-05-09T16:22:12.867Z,2.92
2024-05-09T16:24:43.861Z,3.75
2024-05-09T16:27:12.155Z,3.80
2024-05-09T16:29:46.887Z,4.05
2024-05-09T16:32:14.926Z,4.07
2024-05-09T16:34:45.924Z,3.97
2024-05-09T16:37:14.046Z,3.33
2024-05-09T16:39:45.007Z,13.70
2024-05-09T16:42:12.983Z,6.10
2024-05-09T16:44:46.482Z,4.97
2024-05-09T16:47:14.432Z,3.60
2024-05-09T16:49:45.354Z,35.92
2024-05-09T16:52:13.431Z,37.38
2024-05-09T16:54:44.471Z,34.78
2024-05-09T16:57:12.364Z,35.42
2024-05-09T16:59:45.937Z,13.25
2024-05-09T17:02:14.142Z,18.50
2024-05-09T17:04:45.432Z,9.32
2024-05-09T17:07:13.624Z,9.40
2024-05-09T17:09:45.244Z,7.82
2024-05-09T17:12:15.874Z,6.25
2024-05-09T17:14:49.417Z,5.13
2024-05-09T17:17:20.442Z,5.22
2024-05-09T17:19:51.679Z,4.50
2024-05-09T17:22:20.160Z,3.80
2024-05-09T17:24:51.135Z,4.18
2024-05-09T17:27:19.192Z,12.75
2024-05-09T17:29:52.731Z,11.68
2024-05-09T17:32:20.702Z,16.02
2024-05-09T17:34:51.617Z,14.77
2024-05-09T17:37:19.863Z,8.60
2024-05-09T17:39:50.783Z,13.48
2024-05-09T17:42:18.727Z,27.85
2024-05-09T17:44:52.213Z,8.60
2024-05-09T17:47:20.421Z,6.00
2024-05-09T17:49:51.483Z,6.50
2024-05-09T17:52:19.607Z,12.05
2024-05-09T17:54:50.584Z,8.70
2024-05-09T17:57:18.571Z,6.75
2024-05-09T17:59:49.915Z,4.63
2024-05-09T18:02:20.745Z,4.35
2024-05-09T18:04:51.971Z,4.55
2024-05-09T18:07:19.984Z,4.43
2024-05-09T18:09:50.873Z,4.10
2024-05-09T18:12:18.824Z,9.75
2024-05-09T18:14:49.665Z,10.05
2024-05-09T18:17:22.308Z,8.30
2024-05-09T18:19:54.722Z,7.82
2024-05-09T18:22:23.676Z,6.05
2024-05-09T18:24:54.655Z,5.28
2024-05-09T18:27:23.505Z,7.15
2024-05-09T18:29:54.610Z,6.93
2024-05-09T18:32:25.197Z,7.07
2024-05-09T18:34:56.171Z,5.80
2024-05-09T18:37:24.442Z,6.30
2024-05-09T18:39:55.486Z,5.63
2024-05-09T18:42:23.432Z,6.05
2024-05-09T18:44:54.455Z,5.88
2024-05-09T18:47:25.114Z,5.85
2024-05-09T18:49:56.215Z,6.93
2024-05-09T18:52:24.520Z,33.63
2024-05-09T18:54:55.488Z,31.30
2024-05-09T18:57:23.373Z,18.48
2024-05-09T18:59:54.220Z,19.15
2024-05-09T19:02:24.985Z,13.82
2024-05-09T19:04:56.057Z,12.00
2024-05-09T19:07:24.158Z,8.55
2024-05-09T19:09:55.099Z,8.15
2024-05-09T19:12:23.019Z,7.63
2024-05-09T19:14:53.874Z,6.85
2024-05-09T19:17:21.917Z,6.80
2024-05-09T19:19:56.647Z,7.25
2024-05-09T19:22:24.655Z,7.20
2024-05-09T19:24:55.660Z,5.95
2024-05-09T19:27:24.364Z,6.03
2024-05-09T19:29:57.194Z,5.97
2024-05-09T19:32:25.970Z,5.65
2024-05-09T19:34:59.900Z,20.27
2024-05-09T19:37:28.752Z,20.65
2024-05-09T19:39:59.697Z,9.52
2024-05-09T19:42:29.943Z,8.00
2024-05-09T19:45:00.857Z,6.20
2024-05-09T19:47:29.226Z,6.05
2024-05-09T19:50:03.221Z,6.53
2024-05-09T19:52:31.827Z,5.22
2024-05-09T19:55:02.837Z,7.10
2024-05-09T19:57:30.990Z,6.90
2024-05-09T20:00:01.930Z,5.28
2024-05-09T20:02:37.596Z,5.05
2024-05-09T20:05:11.484Z,5.28
2024-05-09T20:07:39.670Z,6.05
2024-05-09T20:10:20.153Z,5.45
2024-05-09T20:12:51.628Z,4.35
2024-05-09T20:15:22.689Z,6.45
2024-05-09T20:17:50.858Z,7.40
2024-05-09T20:20:33.417Z,7.30
2024-05-09T20:23:06.618Z,8.25
2024-05-09T20:25:37.543Z,6.55
2024-05-09T20:28:06.786Z,7.00
2024-05-09T20:30:38.750Z,7.00
2024-05-09T20:33:08.400Z,6.53
2024-05-09T20:35:43.325Z,7.32
2024-05-09T20:38:11.283Z,6.40
2024-05-09T20:40:43.783Z,7.15
2024-05-09T20:43:12.017Z,7.57
2024-05-09T20:45:43.185Z,6.50
2024-05-09T20:48:11.529Z,6.43
2024-05-09T20:50:45.225Z,7.25
2024-05-09T20:53:14.888Z,5.95
2024-05-09T20:55:47.201Z,6.85
2024-05-09T20:58:15.528Z,7.63
2024-05-09T21:00:47.762Z,7.10
2024-05-09T21:03:17.321Z,6.95
2024-05-09T21:05:52.527Z,7.18
2024-05-09T21:08:20.501Z,6.70
2024-05-09T21:10:51.481Z,6.78
2024-05-09T21:13:19.857Z,7.88
2024-05-09T21:15:50.953Z,7.63
2024-05-09T21:18:19.058Z,7.65
2024-05-09T21:20:52.609Z,6.63
2024-05-09T21:23:20.528Z,6.97
2024-05-09T21:25:51.411Z,7.30
2024-05-09T21:28:19.620Z,7.35
2024-05-09T21:30:50.557Z,7.22
2024-05-09T21:33:19.225Z,7.18
2024-05-09T21:35:52.930Z,8.45
2024-05-09T21:38:20.843Z,7.93
2024-05-09T21:40:51.847Z,8.75
2024-05-09T21:43:19.986Z,7.93
2024-05-09T21:45:51.015Z,9.32
2024-05-09T21:48:19.000Z,9.48
2024-05-09T21:50:52.602Z,10.77
2024-05-09T21:53:20.606Z,9.43
2024-05-09T21:55:51.770Z,10.70
2024-05-09T21:58:19.878Z,9.10
2024-05-09T22:00:50.964Z,8.82
2024-05-09T22:03:19.136Z,10.13
2024-05-09T22:05:52.928Z,8.93
2024-05-09T22:08:20.954Z,9.45
2024-05-09T22:10:52.304Z,8.45
2024-05-09T22:13:20.684Z,8.27
2024-05-09T22:15:51.787Z,9.25
2024-05-09T22:18:19.917Z,9.60
2024-05-09T22:20:54.771Z,9.82
2024-05-09T22:23:22.772Z,9.03
2024-05-09T22:25:53.661Z,10.13
2024-05-09T22:28:21.697Z,8.60
2024-05-09T22:30:53.126Z,8.95
2024-05-09T22:33:21.210Z,9.23
2024-05-09T22:35:54.956Z,8.60
2024-05-09T22:38:22.990Z,8.10
2024-05-09T22:40:54.329Z,8.90
2024-05-09T22:43:24.468Z,8.17
2024-05-09T22:45:56.904Z,8.73
2024-05-09T22:48:25.724Z,8.87
2024-05-09T22:50:59.757Z,8.53
2024-05-09T22:53:27.778Z,8.07
2024-05-09T22:55:58.845Z,8.37
2024-05-09T22:58:26.770Z,8.63
2024-05-09T23:00:57.751Z,8.13
2024-05-09T23:03:26.101Z,8.30
2024-05-09T23:06:01.982Z,8.63
2024-05-09T23:08:29.947Z,10.20
2024-05-09T23:11:00.996Z,8.30
2024-05-09T23:13:29.058Z,8.67
2024-05-09T23:16:00.175Z,9.30
2024-05-09T23:18:28.169Z,9.53
2024-05-09T23:21:03.408Z,9.20
2024-05-09T23:23:31.319Z,10.47
2024-05-09T23:26:02.257Z,8.60
2024-05-09T23:28:31.731Z,8.70
2024-05-09T23:31:02.807Z,9.20
2024-05-09T23:33:30.892Z,9.63
2024-05-09T23:36:04.404Z,9.57
2024-05-09T23:38:34.963Z,9.50
2024-05-09T23:41:03.305Z,9.93
2024-05-09T23:43:34.385Z,9.83
2024-05-09T23:46:02.984Z,11.13
2024-05-09T23:48:33.680Z,11.27
2024-05-09T23:51:04.766Z,9.40
2024-05-09T23:53:35.283Z,10.00
2024-05-09T23:56:03.560Z,9.37
2024-05-09T23:58:34.365Z,10.10
